Terminal Aerodrome Forecast
Issued by NWS

Home |  Current Version |  Previous Version |  Text Only |  Print | Product List |  Glossary On
Versions: 1 2 3 4 5 6 7 8 9 10 11 12 13 14 15 16
589
FTUS43 KTOP 260520
TAFFOE
TAF
KFOE 260520Z 2606/2706 17025G40KT 5SM -TSRA BKN035CB
     FM261100 10011KT P6SM BKN040
     FM261600 31012KT P6SM VCSH BKN040=